createdAt,value
2022-10-10T00:01:26.359Z,16.32
2022-10-10T00:06:30.466Z,15.52
2022-10-10T00:11:31.274Z,16.07
2022-10-10T00:16:28.338Z,16.27
2022-10-10T00:21:25.283Z,16.43
2022-10-10T00:26:22.368Z,16.49
2022-10-10T00:31:19.854Z,16.47
2022-10-10T00:36:19.833Z,16.49
2022-10-10T00:41:22.211Z,16.10
2022-10-10T00:46:19.952Z,16.12
2022-10-10T00:51:20.155Z,15.98
2022-10-10T00:56:21.227Z,15.84
2022-10-10T01:01:18.223Z,15.54
2022-10-10T01:06:16.265Z,15.68
2022-10-10T01:11:30.882Z,16.01
2022-10-10T01:16:34.315Z,15.59
2022-10-10T01:21:43.562Z,15.93
2022-10-10T01:27:15.792Z,15.65
2022-10-10T01:32:19.783Z,15.75
2022-10-10T01:37:19.711Z,15.63
2022-10-10T01:42:22.347Z,15.27
2022-10-10T01:47:24.606Z,15.51
2022-10-10T01:52:34.201Z,15.56
2022-10-10T01:57:46.831Z,15.27
2022-10-10T02:02:52.162Z,15.60
2022-10-10T02:07:50.666Z,15.63
2022-10-10T02:12:49.140Z,15.29
2022-10-10T02:17:49.068Z,15.58
2022-10-10T02:22:47.415Z,15.20
2022-10-10T02:27:50.635Z,14.87
2022-10-10T02:32:52.767Z,15.52
2022-10-10T02:37:54.316Z,15.38
2022-10-10T02:42:53.514Z,15.57
2022-10-10T02:47:51.889Z,15.26
2022-10-10T02:52:49.017Z,15.21
2022-10-10T02:57:46.468Z,15.41
2022-10-10T03:02:45.711Z,15.62
2022-10-10T03:07:43.536Z,15.13
2022-10-10T03:12:40.606Z,15.16
2022-10-10T03:17:37.456Z,15.65
2022-10-10T03:22:34.547Z,15.53
2022-10-10T03:27:32.467Z,15.82
2022-10-10T03:32:29.936Z,15.64
2022-10-10T03:37:27.334Z,15.26
2022-10-10T03:42:26.852Z,15.59
2022-10-10T03:47:24.504Z,15.59
2022-10-10T03:52:27.327Z,16.30
2022-10-10T03:57:25.105Z,16.28
2022-10-10T04:02:21.922Z,16.12
2022-10-10T04:07:19.782Z,15.81
2022-10-10T04:12:16.773Z,15.30
2022-10-10T04:17:22.587Z,15.73
2022-10-10T04:22:20.327Z,15.81
2022-10-10T04:27:17.542Z,15.85
2022-10-10T04:32:14.285Z,15.84
2022-10-10T04:37:11.346Z,15.61
2022-10-10T04:42:08.936Z,15.82
2022-10-10T04:47:06.782Z,15.83
2022-10-10T04:52:03.994Z,15.80
2022-10-10T04:57:18.261Z,15.76
2022-10-10T05:02:37.715Z,16.06
2022-10-10T05:07:38.075Z,15.27
2022-10-10T05:12:43.367Z,15.71
2022-10-10T05:17:47.859Z,15.76
2022-10-10T05:22:45.503Z,15.95
2022-10-10T05:27:45.130Z,16.31
2022-10-10T05:32:43.729Z,15.79
2022-10-10T05:37:43.916Z,15.77
2022-10-10T05:42:41.270Z,16.04
2022-10-10T05:47:38.546Z,15.81
2022-10-10T05:52:36.532Z,16.46
2022-10-10T05:57:33.679Z,16.36
2022-10-10T06:02:30.841Z,15.99
2022-10-10T06:07:45.885Z,16.39
2022-10-10T06:12:49.555Z,16.26
2022-10-10T06:17:47.133Z,15.95
2022-10-10T06:22:44.444Z,15.91
2022-10-10T06:27:44.324Z,16.41
2022-10-10T06:32:47.140Z,16.22
2022-10-10T06:37:44.660Z,16.66
2022-10-10T06:42:42.902Z,16.17
2022-10-10T06:47:42.990Z,16.60
2022-10-10T06:52:42.979Z,16.68
2022-10-10T06:57:41.916Z,16.80
2022-10-10T07:02:42.319Z,16.18
2022-10-10T07:07:42.669Z,16.14
2022-10-10T07:12:44.419Z,16.74
2022-10-10T07:17:44.757Z,16.79
2022-10-10T07:22:44.135Z,17.23
2022-10-10T07:27:41.480Z,18.34
2022-10-10T07:32:40.376Z,18.67
2022-10-10T07:37:41.893Z,19.48
2022-10-10T07:42:44.257Z,19.55
2022-10-10T07:47:41.599Z,20.06
2022-10-10T07:52:39.923Z,19.38
2022-10-10T07:57:37.647Z,20.11
2022-10-10T08:02:35.694Z,20.03
2022-10-10T08:07:32.639Z,19.73
2022-10-10T08:12:29.777Z,20.02
2022-10-10T08:17:27.315Z,20.40
2022-10-10T08:22:25.535Z,19.86
2022-10-10T08:27:27.523Z,19.92
2022-10-10T08:32:24.951Z,20.30
2022-10-10T08:37:27.229Z,20.29
2022-10-10T08:42:35.066Z,20.01
2022-10-10T08:47:39.411Z,20.70
2022-10-10T08:52:42.116Z,20.14
2022-10-10T08:57:50.242Z,20.52
2022-10-10T09:02:53.976Z,20.50
2022-10-10T09:08:12.760Z,20.23
2022-10-10T09:13:25.001Z,20.71
2022-10-10T09:18:40.576Z,20.96
2022-10-10T09:23:49.259Z,20.87
2022-10-10T09:28:55.736Z,20.37
2022-10-10T09:34:06.415Z,21.18
2022-10-10T09:39:13.331Z,21.59
2022-10-10T09:44:15.185Z,22.09
2022-10-10T09:49:15.382Z,21.76
2022-10-10T09:54:15.988Z,21.74
2022-10-10T09:59:37.233Z,21.56
2022-10-10T10:04:38.462Z,21.07
2022-10-10T10:09:37.223Z,20.21
2022-10-10T10:14:46.826Z,20.62
2022-10-10T10:19:46.450Z,20.28
2022-10-10T10:24:43.929Z,21.02
2022-10-10T10:29:47.502Z,21.06
2022-10-10T10:35:33.605Z,20.90
2022-10-10T10:40:38.722Z,21.22
2022-10-10T10:45:46.061Z,21.12
2022-10-10T10:50:54.105Z,21.40
2022-10-10T10:56:00.250Z,21.19
2022-10-10T11:01:27.887Z,20.68
2022-10-10T11:06:54.131Z,20.90
2022-10-10T11:12:12.776Z,20.82
2022-10-10T11:17:19.112Z,21.07
2022-10-10T11:22:19.318Z,21.05
2022-10-10T11:27:24.031Z,21.18
2022-10-10T11:32:30.547Z,20.82
2022-10-10T11:37:31.499Z,21.12
2022-10-10T11:42:35.569Z,20.95
2022-10-10T11:47:36.023Z,20.63
2022-10-10T11:52:50.014Z,21.32
2022-10-10T11:57:54.410Z,21.04
2022-10-10T12:02:56.929Z,20.93
2022-10-10T12:08:18.749Z,20.89
2022-10-10T12:13:34.089Z,20.32
2022-10-10T12:18:41.577Z,20.63
2022-10-10T12:23:42.426Z,21.00
2022-10-10T12:29:01.278Z,20.99
2022-10-10T12:34:11.383Z,20.99
2022-10-10T12:39:40.361Z,20.54
2022-10-10T12:44:49.511Z,20.85
2022-10-10T12:50:43.884Z,20.79
2022-10-10T12:55:44.187Z,21.09
2022-10-10T13:00:52.240Z,21.17
2022-10-10T13:05:51.687Z,20.66
2022-10-10T13:11:04.098Z,20.45
2022-10-10T13:16:08.323Z,20.68
2022-10-10T13:21:38.685Z,20.70
2022-10-10T13:26:40.473Z,20.56
2022-10-10T13:31:38.829Z,20.44
2022-10-10T13:36:42.686Z,20.22
2022-10-10T13:41:49.388Z,20.28
2022-10-10T13:52:38.693Z,19.77
2022-10-10T13:58:01.740Z,19.73
2022-10-10T14:03:39.073Z,20.15
2022-10-10T14:09:13.296Z,19.53
2022-10-10T14:14:28.376Z,19.27
2022-10-10T14:19:44.324Z,19.51
2022-10-10T14:24:50.822Z,19.51
2022-10-10T14:30:22.252Z,19.10
2022-10-10T14:35:59.978Z,19.68
2022-10-10T14:41:18.015Z,18.77
2022-10-10T14:47:12.219Z,18.72
2022-10-10T14:52:55.090Z,19.48
2022-10-10T15:04:21.162Z,19.30
2022-10-10T15:15:34.727Z,18.58
2022-10-10T15:20:39.454Z,19.07
2022-10-10T15:31:48.771Z,18.10
2022-10-10T15:38:36.524Z,17.89
2022-10-10T15:43:56.955Z,18.54
2022-10-10T15:55:05.633Z,17.82
2022-10-10T16:00:11.463Z,17.91
2022-10-10T16:05:13.169Z,17.87
2022-10-10T16:10:59.281Z,17.64
2022-10-10T16:16:24.518Z,17.52
2022-10-10T16:21:24.537Z,17.55
2022-10-10T16:27:13.434Z,17.52
2022-10-10T16:32:58.942Z,16.68
2022-10-10T16:38:19.296Z,17.46
2022-10-10T16:51:07.283Z,17.31
2022-10-10T16:56:20.229Z,16.83
2022-10-10T17:01:20.702Z,16.86
2022-10-10T17:06:25.185Z,16.89
2022-10-10T17:11:36.435Z,16.97
2022-10-10T17:17:11.542Z,16.88
2022-10-10T17:22:12.488Z,16.56
2022-10-10T17:28:47.120Z,16.68
2022-10-10T17:33:53.512Z,16.16
2022-10-10T17:39:26.075Z,16.58
2022-10-10T17:44:28.474Z,16.53
2022-10-10T17:49:46.329Z,16.36
2022-10-10T18:01:13.779Z,16.24
2022-10-10T18:06:24.128Z,16.36
2022-10-10T18:11:43.256Z,16.38
2022-10-10T18:17:20.083Z,15.75
2022-10-10T18:22:20.926Z,16.39
2022-10-10T18:27:21.260Z,16.38
2022-10-10T18:32:19.219Z,16.55
2022-10-10T18:37:18.160Z,16.24
2022-10-10T18:42:16.230Z,16.42
2022-10-10T18:47:18.597Z,16.10
2022-10-10T18:52:16.247Z,16.33
2022-10-10T18:57:26.112Z,15.88
2022-10-10T19:02:32.271Z,15.71
2022-10-10T19:07:38.320Z,16.26
2022-10-10T19:12:36.702Z,16.27
2022-10-10T19:17:41.465Z,15.83
2022-10-10T19:22:39.064Z,16.00
2022-10-10T19:27:38.572Z,15.81
2022-10-10T19:32:42.649Z,16.06
2022-10-10T19:37:53.808Z,16.09
2022-10-10T19:43:04.308Z,16.07
2022-10-10T19:48:01.758Z,15.61
2022-10-10T19:53:05.171Z,15.93
2022-10-10T19:58:03.404Z,15.85
2022-10-10T20:03:00.870Z,15.81
2022-10-10T20:07:58.164Z,15.51
2022-10-10T20:12:55.285Z,15.62
2022-10-10T20:17:54.458Z,15.32
2022-10-10T20:22:54.394Z,15.79
2022-10-10T20:27:52.912Z,15.69
2022-10-10T20:32:53.338Z,15.68
2022-10-10T20:37:52.633Z,15.66
2022-10-10T20:42:52.703Z,15.60
2022-10-10T20:47:50.050Z,15.61
2022-10-10T20:52:47.521Z,15.71
2022-10-10T20:57:45.696Z,15.04
2022-10-10T21:02:42.911Z,15.69
2022-10-10T21:07:42.230Z,15.46
2022-10-10T21:12:41.850Z,15.39
2022-10-10T21:17:39.794Z,14.86
2022-10-10T21:22:36.766Z,15.00
2022-10-10T21:27:52.191Z,15.35
2022-10-10T21:32:50.358Z,15.16
2022-10-10T21:37:54.373Z,15.15
2022-10-10T21:42:52.801Z,14.78
2022-10-10T21:53:08.529Z,15.09
2022-10-10T21:58:15.675Z,15.66
2022-10-10T22:03:13.921Z,15.19
2022-10-10T22:08:11.794Z,15.39
2022-10-10T22:13:19.645Z,15.00
2022-10-10T22:18:19.040Z,15.31
2022-10-10T22:23:23.378Z,15.44
2022-10-10T22:28:20.666Z,14.94
2022-10-10T22:33:18.456Z,14.64
2022-10-10T22:38:15.437Z,14.96
2022-10-10T22:43:12.430Z,14.93
2022-10-10T22:48:09.625Z,14.97
2022-10-10T22:53:25.287Z,13.86
2022-10-10T22:58:22.795Z,14.68
2022-10-10T23:03:20.853Z,14.41
2022-10-10T23:08:43.840Z,14.28
2022-10-10T23:13:42.853Z,14.80
2022-10-10T23:18:39.943Z,14.47
2022-10-10T23:23:39.299Z,14.39
2022-10-10T23:28:36.564Z,14.33
2022-10-10T23:33:59.000Z,14.01
2022-10-10T23:38:57.965Z,14.39
2022-10-10T23:43:55.229Z,13.60
2022-10-10T23:48:52.331Z,14.25
2022-10-10T23:53:49.676Z,14.41
2022-10-10T23:58:47.679Z,14.05
